Terminal Aerodrome Forecast
Issued by NWS

Home | Current Version | Previous Version | Text Only | Print | Product List | Glossary On
Versions: 1 2 3 4 5 6 7 8 9 10 11 12 13 14 15 16 17 18 19 20 21 22 23 24 25 26 27 28 29
000
FTAK31 PANC 281146
TAFADU
TAF
PADU 281146Z 2812/0112 32006KT P6SM OVC015
      TEMPO 2812/2815 OVC025
     FM281500 35010KT P6SM VCSH OVC010
     FM010000 03010KT 5SM BR VCSH OVC010=

USA.gov is the U.S. government's official web portal to all federal, state and local government web resources and services.